Time;durP1;ratioP1;P1;durP2;ratioP2;P2;SDS_P1;SDS_P2;PMS_P1;PMS_P2;Temp;Humidity;BMP_temperature;BMP_pressure;BME280_temperature;BME280_humidity;BME280_pressure;Samples;Min_cycle;Max_cycle;Signal;HPM_P1;HPM_P2
2023/07/07 00:01:21;;;;;;;2.10;1.33;;;;;;;;;;5088585;28;20028;-84
2023/07/07 00:03:46;;;;;;;1.92;1.48;;;;;;;;;;5085698;28;20027;-84
2023/07/07 00:06:12;;;;;;;1.75;1.52;;;;;;;;;;5085366;28;20032;-84
2023/07/07 00:08:37;;;;;;;1.65;0.98;;;;;;;;;;5067879;28;20114;-84
2023/07/07 00:11:04;;;;;;;1.13;0.88;;;;;;;;;;5071218;28;20476;-84
2023/07/07 00:13:30;;;;;;;5.35;1.02;;;;;;;;;;5066201;28;20020;-83
2023/07/07 00:16:01;;;;;;;0.82;0.75;;;;;;;;;;5087212;28;20111;-84
2023/07/07 00:18:26;;;;;;;1.63;0.93;;;;;;;;;;5086248;28;20056;-84
2023/07/07 00:20:59;;;;;;;1.80;1.25;;;;;;;;;;5067325;28;20063;-85
2023/07/07 00:23:26;;;;;;;1.08;0.95;;;;;;;;;;5082339;28;20467;-86
2023/07/07 00:26:06;;;;;;;1.42;1.20;;;;;;;;;;5086071;28;20487;-86
2023/07/07 00:28:32;;;;;;;2.33;1.40;;;;;;;;;;5085638;28;20028;-85
2023/07/07 00:30:58;;;;;;;1.02;0.93;;;;;;;;;;5083880;28;20578;-85
2023/07/07 00:33:25;;;;;;;2.88;1.27;;;;;;;;;;5084960;28;20059;-85
2023/07/07 00:35:51;;;;;;;1.27;0.98;;;;;;;;;;5084989;28;20082;-86
2023/07/07 00:38:17;;;;;;;1.13;0.93;;;;;;;;;;5082942;28;20029;-84
2023/07/07 00:40:44;;;;;;;1.00;0.88;;;;;;;;;;5082647;28;20036;-86
2023/07/07 00:43:11;;;;;;;1.35;1.00;;;;;;;;;;5067304;28;20388;-86
2023/07/07 00:45:37;;;;;;;1.48;1.15;;;;;;;;;;5068344;28;20040;-86
2023/07/07 00:48:05;;;;;;;1.83;1.30;;;;;;;;;;5065195;28;20370;-86
2023/07/07 00:50:34;;;;;;;1.33;1.00;;;;;;;;;;5083718;28;20080;-85
2023/07/07 00:53:00;;;;;;;;;;;;;;;;;;5082604;28;21982;-85
2023/07/07 00:55:38;;;;;;;2.03;1.30;;;;;;;;;;5087066;28;19912;-83
2023/07/07 00:58:07;;;;;;;0.68;0.63;;;;;;;;;;5086212;28;20024;-84
2023/07/07 01:00:34;;;;;;;1.90;1.30;;;;;;;;;;5069032;28;20036;-85
2023/07/07 01:03:03;;;;;;;0.88;0.82;;;;;;;;;;5084488;28;20039;-85
2023/07/07 01:05:31;;;;;;;4.13;1.65;;;;;;;;;;5082396;28;20483;-87
2023/07/07 01:08:01;;;;;;;1.65;1.40;;;;;;;;;;5069345;28;20103;-83
2023/07/07 01:10:27;;;;;;;1.90;1.55;;;;;;;;;;5081994;28;20384;-86
2023/07/07 01:12:52;;;;;;;2.22;1.77;;;;;;;;;;5082583;28;20020;-85
2023/07/07 01:15:21;;;;;;;3.17;1.80;;;;;;;;;;5056873;28;20495;-86
2023/07/07 01:18:11;;;;;;;2.10;1.90;;;;;;;;;;5075297;28;20032;-84
2023/07/07 01:20:41;;;;;;;1.90;1.67;;;;;;;;;;5082933;28;20019;-84
2023/07/07 01:23:27;;;;;;;2.65;1.60;;;;;;;;;;5085800;28;20107;-86
2023/07/07 01:26:22;;;;;;;3.05;1.95;;;;;;;;;;5081333;28;20036;-85
2023/07/07 01:29:00;;;;;;;3.80;2.30;;;;;;;;;;5076707;28;20031;-85
2023/07/07 01:31:40;;;;;;;3.53;2.22;;;;;;;;;;5083385;28;20023;-85
2023/07/07 01:34:08;;;;;;;4.85;2.72;;;;;;;;;;5077228;28;20036;-84
2023/07/07 01:36:34;;;;;;;1.80;1.65;;;;;;;;;;5062665;28;20032;-84
2023/07/07 01:38:59;;;;;;;4.93;2.90;;;;;;;;;;5082058;28;20085;-85
2023/07/07 01:42:07;;;;;;;3.45;2.78;;;;;;;;;;5081882;28;20043;-84
2023/07/07 01:44:40;;;;;;;2.78;2.35;;;;;;;;;;5008743;28;20486;-85
2023/07/07 01:47:13;;;;;;;2.55;1.95;;;;;;;;;;5057827;28;20529;-84
2023/07/07 01:49:59;;;;;;;2.75;2.22;;;;;;;;;;5059689;28;20063;-82
2023/07/07 01:52:30;;;;;;;2.22;1.67;;;;;;;;;;5069282;28;20024;-82
2023/07/07 01:55:17;;;;;;;3.42;2.28;;;;;;;;;;5085067;28;20176;-86
2023/07/07 01:57:45;;;;;;;3.70;2.15;;;;;;;;;;5060631;28;20033;-83
2023/07/07 02:00:13;;;;;;;3.08;2.67;;;;;;;;;;5083912;28;20024;-85
2023/07/07 02:02:39;;;;;;;4.70;3.30;;;;;;;;;;5084755;28;20054;-82
2023/07/07 02:05:04;;;;;;;3.10;2.20;;;;;;;;;;5060887;28;20032;-86
2023/07/07 02:07:30;;;;;;;3.33;2.22;;;;;;;;;;5084016;28;20421;-84
2023/07/07 02:09:55;;;;;;;4.05;2.90;;;;;;;;;;5079713;28;20051;-85
2023/07/07 02:12:21;;;;;;;4.47;3.20;;;;;;;;;;5058823;28;20032;-82
2023/07/07 02:14:47;;;;;;;4.22;3.20;;;;;;;;;;5079731;28;20024;-84
2023/07/07 02:17:15;;;;;;;6.18;4.07;;;;;;;;;;5082943;28;20084;-83
2023/07/07 02:19:44;;;;;;;5.93;3.67;;;;;;;;;;5083421;28;20046;-83
2023/07/07 02:22:09;;;;;;;5.45;3.10;;;;;;;;;;5075734;28;20039;-84
2023/07/07 02:24:35;;;;;;;4.20;2.40;;;;;;;;;;5085384;28;20032;-84
2023/07/07 02:27:01;;;;;;;5.45;3.53;;;;;;;;;;5067309;28;20028;-84
2023/07/07 02:29:27;;;;;;;4.10;3.10;;;;;;;;;;5080070;28;20381;-85
2023/07/07 02:31:52;;;;;;;4.53;2.28;;;;;;;;;;5069818;28;20038;-85
2023/07/07 02:34:18;;;;;;;3.25;1.92;;;;;;;;;;5077347;28;20395;-83
2023/07/07 02:36:43;;;;;;;3.97;2.67;;;;;;;;;;5067623;28;20024;-83
2023/07/07 02:39:09;;;;;;;4.57;2.83;;;;;;;;;;5085213;28;20045;-86
2023/07/07 02:41:34;;;;;;;3.20;2.47;;;;;;;;;;5061130;28;20028;-82
2023/07/07 02:43:59;;;;;;;4.55;2.85;;;;;;;;;;5061810;28;20082;-83
2023/07/07 02:46:25;;;;;;;4.18;2.47;;;;;;;;;;5072648;28;20052;-84
2023/07/07 02:48:50;;;;;;;4.22;3.30;;;;;;;;;;5089771;28;20025;-83
2023/07/07 02:51:16;;;;;;;4.97;3.15;;;;;;;;;;5061436;28;20035;-84
2023/07/07 02:53:41;;;;;;;4.45;2.85;;;;;;;;;;5069836;28;20551;-83
2023/07/07 02:56:07;;;;;;;3.30;2.78;;;;;;;;;;5083244;28;20122;-84
2023/07/07 02:58:33;;;;;;;4.18;2.55;;;;;;;;;;5067620;28;20024;-84
2023/07/07 03:01:12;;;;;;;3.90;3.00;;;;;;;;;;5091774;28;20032;-83
2023/07/07 03:03:47;;;;;;;3.27;2.33;;;;;;;;;;5090173;28;20380;-82
2023/07/07 03:06:15;;;;;;;5.10;2.80;;;;;;;;;;5068258;28;20074;-82
2023/07/07 03:08:41;;;;;;;3.85;3.33;;;;;;;;;;5082365;28;20035;-85
2023/07/07 03:11:09;;;;;;;3.42;2.28;;;;;;;;;;5089338;28;20031;-84
2023/07/07 03:13:35;;;;;;;4.18;2.78;;;;;;;;;;5081925;28;20035;-83
2023/07/07 03:16:10;;;;;;;6.38;2.97;;;;;;;;;;5073813;28;20054;-83
2023/07/07 03:18:35;;;;;;;2.78;2.00;;;;;;;;;;5084137;28;20384;-82
2023/07/07 03:21:01;;;;;;;4.22;2.47;;;;;;;;;;5085404;28;20020;-84
2023/07/07 03:23:27;;;;;;;4.60;3.25;;;;;;;;;;5076552;28;20024;-84
2023/07/07 03:25:52;;;;;;;2.45;2.03;;;;;;;;;;5068708;28;20150;-84
2023/07/07 03:28:18;;;;;;;3.38;2.03;;;;;;;;;;5084422;28;20056;-83
2023/07/07 03:30:43;;;;;;;3.58;2.35;;;;;;;;;;5085687;28;20391;-83
2023/07/07 03:33:09;;;;;;;2.80;2.22;;;;;;;;;;5066242;28;20028;-85
2023/07/07 03:35:34;;;;;;;2.40;2.20;;;;;;;;;;5089165;28;20031;-86
2023/07/07 03:38:00;;;;;;;3.30;2.63;;;;;;;;;;5086380;28;20516;-86
2023/07/07 03:40:25;;;;;;;5.50;3.47;;;;;;;;;;5070366;28;20032;-85
2023/07/07 03:42:51;;;;;;;4.07;2.88;;;;;;;;;;5065821;28;20024;-84
2023/07/07 03:45:16;;;;;;;7.47;4.38;;;;;;;;;;5069923;28;20056;-85
2023/07/07 03:47:43;;;;;;;4.88;3.55;;;;;;;;;;5091433;28;21807;-81
2023/07/07 03:50:09;;;;;;;4.43;2.55;;;;;;;;;;5081440;28;20479;-81
2023/07/07 03:52:35;;;;;;;5.15;3.30;;;;;;;;;;5068785;28;20038;-85
2023/07/07 03:55:01;;;;;;;5.93;3.95;;;;;;;;;;5087341;28;20024;-82
2023/07/07 03:57:27;;;;;;;2.90;2.42;;;;;;;;;;5065176;28;20016;-84
2023/07/07 03:59:52;;;;;;;3.42;3.00;;;;;;;;;;5068754;28;20027;-84
2023/07/07 04:02:18;;;;;;;5.20;3.47;;;;;;;;;;5087400;28;20468;-83
2023/07/07 04:04:44;;;;;;;7.70;4.03;;;;;;;;;;5093276;28;20035;-82
2023/07/07 04:07:10;;;;;;;5.78;4.35;;;;;;;;;;5068160;28;20032;-83
2023/07/07 04:09:35;;;;;;;5.10;3.85;;;;;;;;;;5069437;28;20027;-88
2023/07/07 04:12:01;;;;;;;4.40;3.08;;;;;;;;;;5089283;28;20065;-83
2023/07/07 04:14:28;;;;;;;4.25;3.28;;;;;;;;;;5087395;28;20024;-83
2023/07/07 04:16:54;;;;;;;5.10;3.70;;;;;;;;;;5067467;28;20106;-83
2023/07/07 04:19:20;;;;;;;3.17;2.70;;;;;;;;;;5088051;28;20111;-84
2023/07/07 04:21:46;;;;;;;4.88;3.28;;;;;;;;;;5064010;28;20062;-83
2023/07/07 04:24:11;;;;;;;5.00;4.13;;;;;;;;;;5062605;28;20149;-84
2023/07/07 04:26:38;;;;;;;5.60;3.53;;;;;;;;;;5063911;28;20016;-86
2023/07/07 04:29:04;;;;;;;5.15;3.97;;;;;;;;;;5084458;28;20016;-84
2023/07/07 04:31:30;;;;;;;4.07;3.22;;;;;;;;;;5081869;28;20383;-84
2023/07/07 04:33:57;;;;;;;4.00;3.08;;;;;;;;;;5068106;28;20036;-86
2023/07/07 04:36:23;;;;;;;5.00;3.20;;;;;;;;;;5090256;28;20077;-86
2023/07/07 04:38:49;;;;;;;4.82;3.63;;;;;;;;;;5070247;28;20032;-84
2023/07/07 04:41:17;;;;;;;3.63;2.90;;;;;;;;;;5071245;28;20091;-87
2023/07/07 04:43:51;;;;;;;4.88;3.30;;;;;;;;;;5084692;28;20039;-85
2023/07/07 04:46:24;;;;;;;4.72;3.15;;;;;;;;;;5091612;28;20108;-84
2023/07/07 04:48:49;;;;;;;3.53;3.20;;;;;;;;;;5067710;28;20035;-84
2023/07/07 04:51:15;;;;;;;4.47;3.45;;;;;;;;;;5091625;28;20024;-84
2023/07/07 04:53:41;;;;;;;5.57;3.33;;;;;;;;;;5094088;28;20024;-86
2023/07/07 04:56:18;;;;;;;6.90;4.20;;;;;;;;;;5082382;28;20020;-87
2023/07/07 04:58:46;;;;;;;4.25;3.17;;;;;;;;;;5085969;28;20024;-86
2023/07/07 05:01:27;;;;;;;4.95;3.75;;;;;;;;;;5082637;28;20036;-83
2023/07/07 05:03:55;;;;;;;3.55;3.00;;;;;;;;;;5062682;28;20447;-84
2023/07/07 05:06:22;;;;;;;3.60;2.45;;;;;;;;;;5063653;28;20020;-82
2023/07/07 05:08:48;;;;;;;5.88;3.45;;;;;;;;;;5077080;28;20078;-84
2023/07/07 05:11:16;;;;;;;3.45;2.42;;;;;;;;;;5067161;28;20591;-85
2023/07/07 05:13:42;;;;;;;4.85;3.22;;;;;;;;;;5065402;28;20384;-84
2023/07/07 05:16:10;;;;;;;5.15;3.92;;;;;;;;;;5082439;28;20046;-85
2023/07/07 05:18:36;;;;;;;3.67;3.03;;;;;;;;;;5086886;28;20020;-82
2023/07/07 05:21:03;;;;;;;3.53;2.75;;;;;;;;;;5083201;28;20552;-87
2023/07/07 05:23:28;;;;;;;4.65;2.40;;;;;;;;;;5087580;28;20040;-85
2023/07/07 05:25:54;;;;;;;5.32;3.80;;;;;;;;;;5081101;28;20042;-83
2023/07/07 05:28:20;;;;;;;5.55;4.22;;;;;;;;;;5065825;28;20077;-84
2023/07/07 05:30:45;;;;;;;5.05;2.58;;;;;;;;;;5085883;28;20036;-84
2023/07/07 05:33:11;;;;;;;5.75;2.92;;;;;;;;;;5083264;28;20111;-83
2023/07/07 05:35:49;;;;;;;3.88;2.95;;;;;;;;;;5082599;28;20039;-82
2023/07/07 05:38:16;;;;;;;4.05;3.17;;;;;;;;;;5083512;28;20103;-82
2023/07/07 05:40:43;;;;;;;3.78;2.67;;;;;;;;;;5059036;28;20027;-86
2023/07/07 05:43:09;;;;;;;4.15;3.17;;;;;;;;;;5065886;28;20086;-82
2023/07/07 05:45:34;;;;;;;6.03;3.53;;;;;;;;;;5063776;28;20484;-84
2023/07/07 05:48:00;;;;;;;6.47;3.70;;;;;;;;;;5065938;28;20508;-85
2023/07/07 05:50:25;;;;;;;4.03;3.15;;;;;;;;;;5064672;28;20031;-85
2023/07/07 05:52:51;;;;;;;4.50;2.55;;;;;;;;;;5079648;28;20020;-84
2023/07/07 05:55:31;;;;;;;4.18;2.78;;;;;;;;;;5078611;28;20077;-84
2023/07/07 05:57:57;;;;;;;3.45;2.58;;;;;;;;;;5057189;28;20028;-85
2023/07/07 06:00:25;;;;;;;4.38;2.78;;;;;;;;;;5064989;28;20044;-83
2023/07/07 06:02:50;;;;;;;3.80;3.03;;;;;;;;;;5068783;28;20097;-83
2023/07/07 06:05:15;;;;;;;3.95;2.97;;;;;;;;;;5062794;28;20490;-82
2023/07/07 06:07:41;;;;;;;5.25;3.70;;;;;;;;;;5063967;28;20047;-83
2023/07/07 06:10:10;;;;;;;4.00;3.15;;;;;;;;;;5061792;28;20388;-91
2023/07/07 06:12:37;;;;;;;4.28;2.97;;;;;;;;;;5068553;28;20383;-82
2023/07/07 06:15:03;;;;;;;3.45;2.65;;;;;;;;;;5086761;28;20032;-81
2023/07/07 06:17:29;;;;;;;3.10;2.42;;;;;;;;;;5081285;28;20044;-82
2023/07/07 06:19:54;;;;;;;5.97;3.75;;;;;;;;;;5064199;28;20030;-81
2023/07/07 06:22:20;;;;;;;3.75;2.80;;;;;;;;;;5071905;28;20090;-81
2023/07/07 06:24:45;;;;;;;3.60;2.78;;;;;;;;;;5088905;28;20047;-80
2023/07/07 06:27:11;;;;;;;7.03;3.75;;;;;;;;;;5090727;28;20107;-80
2023/07/07 06:29:36;;;;;;;3.97;3.03;;;;;;;;;;5075200;28;20032;-81
2023/07/07 06:32:02;;;;;;;5.07;3.72;;;;;;;;;;5088368;28;20040;-82
2023/07/07 06:34:28;;;;;;;5.00;3.33;;;;;;;;;;5085165;28;20464;-80
2023/07/07 06:36:53;;;;;;;4.80;3.58;;;;;;;;;;5095887;28;20044;-80
2023/07/07 06:39:18;;;;;;;5.00;3.50;;;;;;;;;;5088442;28;20039;-81
2023/07/07 06:41:44;;;;;;;4.45;3.05;;;;;;;;;;5092422;28;20464;-81
2023/07/07 06:44:09;;;;;;;3.92;3.03;;;;;;;;;;5089295;28;20079;-80
2023/07/07 06:46:35;;;;;;;4.40;2.72;;;;;;;;;;5093210;28;20047;-82
2023/07/07 06:49:02;;;;;;;3.42;2.45;;;;;;;;;;5069186;28;20465;-82
2023/07/07 06:51:28;;;;;;;3.42;2.10;;;;;;;;;;5062152;28;20388;-80
2023/07/07 06:53:54;;;;;;;3.92;2.92;;;;;;;;;;5086494;28;20043;-80
2023/07/07 06:56:19;;;;;;;3.63;2.83;;;;;;;;;;5090945;28;20048;-80
2023/07/07 06:58:45;;;;;;;3.20;2.28;;;;;;;;;;5093448;28;20099;-80
2023/07/07 07:01:11;;;;;;;11.13;2.13;;;;;;;;;;5085193;28;20028;-81
2023/07/07 07:03:39;;;;;;;4.53;2.78;;;;;;;;;;5063827;28;20116;-80
2023/07/07 07:06:04;;;;;;;3.92;2.45;;;;;;;;;;5092550;28;20020;-81
2023/07/07 07:08:30;;;;;;;2.42;2.10;;;;;;;;;;5065911;28;20594;-82
2023/07/07 07:10:56;;;;;;;6.53;4.35;;;;;;;;;;5082924;28;20024;-80
2023/07/07 07:13:21;;;;;;;4.78;3.75;;;;;;;;;;5085946;28;20069;-79
2023/07/07 07:15:46;;;;;;;3.63;2.47;;;;;;;;;;5088670;28;20165;-80
2023/07/07 07:18:13;;;;;;;3.47;2.88;;;;;;;;;;5077494;28;20043;-79
2023/07/07 07:20:39;;;;;;;3.17;2.20;;;;;;;;;;5087676;28;20028;-80
2023/07/07 07:23:04;;;;;;;3.67;2.67;;;;;;;;;;5072353;28;20031;-81
2023/07/07 07:25:30;;;;;;;3.78;2.78;;;;;;;;;;5069249;28;20427;-81
2023/07/07 07:27:55;;;;;;;4.57;3.00;;;;;;;;;;5068985;28;20495;-83
2023/07/07 07:30:21;;;;;;;3.95;3.13;;;;;;;;;;5093344;28;20455;-82
2023/07/07 07:32:46;;;;;;;2.92;2.35;;;;;;;;;;5086112;28;20020;-81
2023/07/07 07:35:12;;;;;;;3.47;1.88;;;;;;;;;;5090376;28;20568;-82
2023/07/07 07:37:39;;;;;;;3.13;2.03;;;;;;;;;;5082202;28;20384;-84
2023/07/07 07:40:05;;;;;;;3.88;2.03;;;;;;;;;;5086189;28;20029;-81
2023/07/07 07:42:30;;;;;;;4.18;2.83;;;;;;;;;;5093300;28;20396;-82
2023/07/07 07:44:56;;;;;;;3.50;2.67;;;;;;;;;;5085526;28;20020;-82
2023/07/07 07:47:21;;;;;;;3.53;2.50;;;;;;;;;;5092131;28;20422;-81
2023/07/07 07:49:47;;;;;;;3.15;2.35;;;;;;;;;;5098882;28;20071;-82
2023/07/07 07:52:12;;;;;;;4.55;3.08;;;;;;;;;;5074280;28;20035;-83
2023/07/07 07:54:38;;;;;;;4.50;3.15;;;;;;;;;;5091762;28;20368;-81
2023/07/07 07:57:04;;;;;;;3.10;2.47;;;;;;;;;;5081527;28;20024;-82
2023/07/07 07:59:31;;;;;;;6.60;4.25;;;;;;;;;;5080273;28;20028;-80
2023/07/07 08:01:56;;;;;;;3.00;1.83;;;;;;;;;;5069164;28;20073;-80
2023/07/07 08:04:22;;;;;;;4.97;2.22;;;;;;;;;;5083747;28;20032;-82
2023/07/07 08:06:51;;;;;;;2.60;1.65;;;;;;;;;;5093397;28;20034;-82
2023/07/07 08:09:16;;;;;;;3.58;2.65;;;;;;;;;;5085948;28;20495;-82
2023/07/07 08:11:42;;;;;;;3.83;2.47;;;;;;;;;;5085967;28;20028;-81
2023/07/07 08:14:16;;;;;;;3.45;2.83;;;;;;;;;;5083016;28;20472;-81
2023/07/07 08:16:42;;;;;;;2.42;2.10;;;;;;;;;;5081411;28;20024;-83
2023/07/07 08:19:08;;;;;;;4.07;2.60;;;;;;;;;;5086945;28;20477;-84
2023/07/07 08:21:34;;;;;;;4.55;3.00;;;;;;;;;;5074033;28;20091;-83
2023/07/07 08:23:59;;;;;;;4.93;3.08;;;;;;;;;;5086931;28;20114;-83
2023/07/07 08:26:25;;;;;;;3.50;2.22;;;;;;;;;;5064127;28;20474;-83
2023/07/07 08:28:50;;;;;;;2.33;1.85;;;;;;;;;;5087499;28;20038;-82
2023/07/07 08:31:16;;;;;;;3.40;1.63;;;;;;;;;;5092008;28;20039;-82
2023/07/07 08:33:44;;;;;;;3.58;2.55;;;;;;;;;;5062408;28;20019;-82
2023/07/07 08:36:10;;;;;;;3.00;1.95;;;;;;;;;;5097228;28;20039;-81
2023/07/07 08:38:35;;;;;;;2.38;1.60;;;;;;;;;;5090975;28;20034;-80
2023/07/07 08:41:01;;;;;;;3.70;2.10;;;;;;;;;;5089417;28;20102;-80
2023/07/07 08:43:29;;;;;;;1.80;1.67;;;;;;;;;;5085555;28;20082;-80
2023/07/07 08:46:34;;;;;;;2.78;2.17;;;;;;;;;;5074170;28;20044;-82
2023/07/07 08:49:16;;;;;;;5.05;3.03;;;;;;;;;;5085980;28;20093;-83
2023/07/07 08:51:56;;;;;;;4.43;2.58;;;;;;;;;;5093119;28;20459;-82
2023/07/07 08:54:25;;;;;;;;;;;;;;;;;;5067079;28;20395;-81
2023/07/07 08:57:07;;;;;;;2.28;1.58;;;;;;;;;;5090231;28;19923;-81
2023/07/07 08:59:51;;;;;;;5.30;2.10;;;;;;;;;;5091283;28;20506;-81
2023/07/07 09:02:34;;;;;;;4.25;2.33;;;;;;;;;;5060717;28;20476;-80
2023/07/07 09:05:33;;;;;;;2.38;1.98;;;;;;;;;;5082710;28;20028;-82
2023/07/07 09:08:17;;;;;;;2.20;1.90;;;;;;;;;;5089352;28;20108;-81
2023/07/07 09:11:18;;;;;;;2.83;2.13;;;;;;;;;;5089216;28;20490;-83
2023/07/07 09:13:45;;;;;;;2.35;1.80;;;;;;;;;;5087798;28;20028;-82
2023/07/07 09:16:24;;;;;;;2.65;2.03;;;;;;;;;;5087803;28;20032;-82
2023/07/07 09:18:53;;;;;;;2.78;2.35;;;;;;;;;;5085652;28;20563;-81
2023/07/07 09:21:40;;;;;;;2.80;2.33;;;;;;;;;;5083595;28;20020;-80
2023/07/07 09:24:16;;;;;;;2.70;2.17;;;;;;;;;;5087364;28;20058;-81
2023/07/07 09:26:45;;;;;;;2.30;1.77;;;;;;;;;;5083768;28;20021;-79
2023/07/07 09:29:39;;;;;;;2.58;1.75;;;;;;;;;;5067979;28;20472;-80
2023/07/07 09:32:09;;;;;;;4.30;2.47;;;;;;;;;;5049527;28;20036;-80
2023/07/07 09:34:34;;;;;;;5.63;1.88;;;;;;;;;;5069934;28;20019;-80
2023/07/07 09:37:23;;;;;;;3.08;2.33;;;;;;;;;;5085522;28;20503;-80
2023/07/07 09:40:13;;;;;;;2.20;1.60;;;;;;;;;;5077931;28;20051;-80
2023/07/07 09:43:02;;;;;;;8.40;2.70;;;;;;;;;;5089122;28;20028;-81
2023/07/07 09:46:04;;;;;;;2.83;2.25;;;;;;;;;;5087430;28;20131;-82
2023/07/07 09:48:35;;;;;;;1.77;1.38;;;;;;;;;;5088717;28;20520;-82
2023/07/07 09:51:42;;;;;;;4.82;1.58;;;;;;;;;;5086011;28;20115;-82
2023/07/07 09:54:13;;;;;;;2.10;1.90;;;;;;;;;;5057800;28;20040;-83
2023/07/07 09:56:47;;;;;;;2.55;1.88;;;;;;;;;;5062154;28;20034;-82
2023/07/07 09:59:18;;;;;;;2.95;1.75;;;;;;;;;;5063046;28;20125;-82
2023/07/07 10:01:48;;;;;;;3.30;1.83;;;;;;;;;;5067544;28;20032;-85
2023/07/07 10:04:16;;;;;;;1.77;1.45;;;;;;;;;;5084152;28;20024;-81
2023/07/07 10:06:49;;;;;;;2.67;1.90;;;;;;;;;;5082704;28;20545;-82
2023/07/07 10:09:15;;;;;;;2.13;1.50;;;;;;;;;;5081871;28;20108;-84
2023/07/07 10:11:42;;;;;;;2.15;1.38;;;;;;;;;;5074960;28;20028;-83
2023/07/07 10:14:12;;;;;;;1.98;1.45;;;;;;;;;;5089063;28;20130;-82
2023/07/07 10:17:06;;;;;;;2.38;1.52;;;;;;;;;;5086538;28;20032;-83
2023/07/07 10:19:43;;;;;;;1.85;1.63;;;;;;;;;;5082828;28;20063;-82
2023/07/07 10:22:21;;;;;;;3.30;2.20;;;;;;;;;;5084502;28;20047;-81
2023/07/07 10:24:46;;;;;;;3.47;1.70;;;;;;;;;;5065855;28;20028;-83
2023/07/07 10:27:16;;;;;;;2.50;1.75;;;;;;;;;;5069265;28;20027;-84
2023/07/07 10:29:43;;;;;;;3.00;1.92;;;;;;;;;;5070928;28;20051;-84
2023/07/07 10:32:16;;;;;;;3.03;2.03;;;;;;;;;;5093502;28;20436;-84
2023/07/07 10:34:46;;;;;;;2.13;1.67;;;;;;;;;;5065501;28;20088;-83
2023/07/07 10:37:27;;;;;;;1.67;1.20;;;;;;;;;;5071299;28;20396;-83
2023/07/07 10:39:55;;;;;;;1.88;1.65;;;;;;;;;;5086417;28;20051;-83
2023/07/07 10:42:25;;;;;;;1.65;1.40;;;;;;;;;;5091629;28;20108;-82
2023/07/07 10:44:52;;;;;;;2.15;1.73;;;;;;;;;;5060502;28;20032;-84
2023/07/07 10:47:33;;;;;;;1.58;1.35;;;;;;;;;;5080598;28;20056;-83
2023/07/07 10:50:03;;;;;;;2.55;1.80;;;;;;;;;;5091713;28;20420;-85
2023/07/07 10:52:54;;;;;;;2.83;1.80;;;;;;;;;;5064639;28;20035;-84
2023/07/07 10:55:52;;;;;;;3.53;1.90;;;;;;;;;;5077152;28;20024;-86
2023/07/07 10:58:48;;;;;;;2.70;1.67;;;;;;;;;;5082858;28;20107;-84
2023/07/07 11:01:25;;;;;;;2.35;1.50;;;;;;;;;;5067614;28;20237;-85
2023/07/07 11:04:02;;;;;;;2.03;1.38;;;;;;;;;;5089521;28;20519;-83
2023/07/07 11:07:01;;;;;;;2.42;1.65;;;;;;;;;;5092441;28;20024;-84
2023/07/07 11:09:54;;;;;;;2.10;1.38;;;;;;;;;;5078878;28;20165;-84
2023/07/07 11:12:28;;;;;;;3.15;1.52;;;;;;;;;;5073740;28;20118;-85
2023/07/07 11:15:30;;;;;;;2.33;1.63;;;;;;;;;;5092677;28;20414;-86
2023/07/07 11:18:19;;;;;;;2.47;1.85;;;;;;;;;;5098645;28;20043;-84
2023/07/07 11:20:45;;;;;;;5.20;2.35;;;;;;;;;;5074485;28;20036;-86
2023/07/07 11:23:35;;;;;;;2.28;1.25;;;;;;;;;;5073789;28;20075;-86
2023/07/07 11:26:09;;;;;;;2.95;2.10;;;;;;;;;;5105118;28;20093;-85
2023/07/07 11:29:02;;;;;;;2.38;1.73;;;;;;;;;;5071537;28;20356;-84
2023/07/07 11:31:44;;;;;;;1.92;1.70;;;;;;;;;;5091619;28;20114;-83
2023/07/07 11:34:30;;;;;;;2.53;1.70;;;;;;;;;;5090766;28;20134;-85
2023/07/07 11:37:05;;;;;;;1.80;1.45;;;;;;;;;;5078509;28;20491;-83
2023/07/07 11:40:08;;;;;;;2.03;1.27;;;;;;;;;;5091141;28;20106;-82
2023/07/07 11:42:48;;;;;;;2.28;1.70;;;;;;;;;;5095348;28;20478;-81
2023/07/07 11:45:31;;;;;;;1.90;1.25;;;;;;;;;;5070730;28;20056;-82
2023/07/07 11:48:13;;;;;;;2.13;1.63;;;;;;;;;;5084214;28;20021;-83
2023/07/07 11:51:04;;;;;;;2.50;1.55;;;;;;;;;;5087864;28;20072;-81
2023/07/07 11:53:54;;;;;;;1.52;1.10;;;;;;;;;;5068202;28;20071;-81
2023/07/07 11:56:25;;;;;;;;;;;;;;;;;;5089097;28;20043;-81
2023/07/07 11:59:05;;;;;;;1.42;1.10;;;;;;;;;;5083910;28;19923;-82
2023/07/07 12:01:40;;;;;;;2.33;1.50;;;;;;;;;;5089032;28;20032;-80
2023/07/07 12:04:22;;;;;;;2.42;1.52;;;;;;;;;;5085492;28;20388;-82
2023/07/07 12:06:52;;;;;;;1.02;0.90;;;;;;;;;;5095312;28;20065;-81
2023/07/07 12:09:38;;;;;;;2.42;1.77;;;;;;;;;;5083548;28;20020;-82
2023/07/07 12:12:36;;;;;;;3.35;1.85;;;;;;;;;;5085377;28;20024;-81
2023/07/07 12:15:25;;;;;;;2.83;1.70;;;;;;;;;;5079485;28;20430;-82
2023/07/07 12:18:01;;;;;;;2.43;1.60;;;;;;;;;;5087084;28;20051;-82
2023/07/07 12:20:31;;;;;;;2.10;1.35;;;;;;;;;;5089387;28;20260;-83
2023/07/07 12:23:00;;;;;;;1.58;1.13;;;;;;;;;;5091494;28;20020;-84
2023/07/07 12:25:29;;;;;;;4.00;1.55;;;;;;;;;;5081691;28;20103;-81
2023/07/07 12:27:56;;;;;;;1.73;1.25;;;;;;;;;;5066196;28;20060;-83
2023/07/07 12:30:30;;;;;;;2.25;1.85;;;;;;;;;;5089662;28;20040;-83
2023/07/07 12:32:57;;;;;;;3.20;1.38;;;;;;;;;;5093935;28;20051;-83
2023/07/07 12:35:28;;;;;;;2.10;1.50;;;;;;;;;;5091974;28;20047;-81
2023/07/07 12:38:27;;;;;;;4.13;1.90;;;;;;;;;;5086003;28;20030;-82
2023/07/07 12:40:56;;;;;;;3.67;2.22;;;;;;;;;;5082364;28;20068;-83
2023/07/07 12:43:32;;;;;;;1.73;1.20;;;;;;;;;;5083914;28;20036;-81
2023/07/07 12:45:58;;;;;;;2.40;1.60;;;;;;;;;;5067563;28;20404;-80
2023/07/07 12:48:27;;;;;;;3.95;1.90;;;;;;;;;;5065775;28;20024;-82
2023/07/07 12:51:02;;;;;;;2.15;1.52;;;;;;;;;;5093520;28;20076;-81
2023/07/07 12:53:32;;;;;;;3.58;2.17;;;;;;;;;;5090427;28;20073;-81
2023/07/07 12:56:06;;;;;;;;;;;;;;;;;;5064238;28;20414;-82
2023/07/07 12:58:41;;;;;;;3.15;2.08;;;;;;;;;;5084126;28;19922;-82
2023/07/07 13:01:11;;;;;;;3.28;1.98;;;;;;;;;;5089978;28;20032;-82
2023/07/07 13:03:59;;;;;;;3.45;2.05;;;;;;;;;;5084758;28;20051;-83
2023/07/07 13:06:30;;;;;;;2.07;1.33;;;;;;;;;;5092273;28;20016;-82
2023/07/07 13:09:18;;;;;;;2.30;1.27;;;;;;;;;;5081549;28;20020;-81
2023/07/07 13:11:58;;;;;;;2.38;1.50;;;;;;;;;;5085671;28;20013;-82
2023/07/07 13:14:42;;;;;;;1.52;1.10;;;;;;;;;;5059433;28;20054;-82
2023/07/07 13:17:23;;;;;;;2.15;1.60;;;;;;;;;;5091710;28;20032;-82
2023/07/07 13:19:50;;;;;;;1.42;1.10;;;;;;;;;;5081820;28;20111;-80
2023/07/07 13:22:38;;;;;;;3.55;2.03;;;;;;;;;;5089413;28;20023;-80
2023/07/07 13:25:06;;;;;;;2.03;1.20;;;;;;;;;;5088223;28;20033;-82
2023/07/07 13:27:33;;;;;;;1.92;1.27;;;;;;;;;;5086831;28;20027;-80
2023/07/07 13:30:04;;;;;;;1.48;1.30;;;;;;;;;;5065455;28;20110;-80
2023/07/07 13:32:33;;;;;;;1.88;1.30;;;;;;;;;;5088681;28;20035;-81
2023/07/07 13:35:05;;;;;;;1.50;1.00;;;;;;;;;;5085573;28;20069;-83
2023/07/07 13:37:32;;;;;;;1.10;1.00;;;;;;;;;;5076409;28;20085;-83
2023/07/07 13:39:58;;;;;;;3.33;1.30;;;;;;;;;;5063912;28;20423;-84
2023/07/07 13:42:27;;;;;;;1.63;1.15;;;;;;;;;;5072782;28;20052;-84
2023/07/07 13:45:06;;;;;;;1.58;0.90;;;;;;;;;;5080633;28;20376;-83
2023/07/07 13:47:32;;;;;;;1.88;1.40;;;;;;;;;;5092107;28;20032;-83
2023/07/07 13:50:03;;;;;;;1.23;1.05;;;;;;;;;;5091827;28;20051;-83
2023/07/07 13:52:34;;;;;;;1.65;1.02;;;;;;;;;;5075900;28;20059;-83
2023/07/07 13:54:59;;;;;;;1.83;0.95;;;;;;;;;;5066983;28;20114;-81
2023/07/07 13:57:30;;;;;;;0.90;0.85;;;;;;;;;;5086108;28;20103;-84
2023/07/07 13:59:58;;;;;;;1.98;1.38;;;;;;;;;;5081919;28;20433;-83
2023/07/07 14:02:24;;;;;;;1.50;1.20;;;;;;;;;;5085060;28;20024;-83
2023/07/07 14:05:04;;;;;;;1.75;1.38;;;;;;;;;;5082373;28;20467;-83
2023/07/07 14:07:36;;;;;;;0.75;0.75;;;;;;;;;;5063437;28;20058;-81
2023/07/07 14:10:01;;;;;;;3.28;1.60;;;;;;;;;;5085571;28;20051;-80
2023/07/07 14:12:28;;;;;;;2.60;1.55;;;;;;;;;;5075902;28;20036;-83
2023/07/07 14:14:57;;;;;;;1.23;1.13;;;;;;;;;;5062774;28;20035;-81
2023/07/07 14:17:26;;;;;;;;;;;;;;;;;;5085848;28;20035;-80
2023/07/07 14:20:12;;;;;;;2.03;1.33;;;;;;;;;;5087326;28;19911;-81
2023/07/07 14:22:40;;;;;;;1.77;1.05;;;;;;;;;;5064624;28;20116;-83
2023/07/07 14:25:06;;;;;;;1.63;1.30;;;;;;;;;;5082967;28;20077;-82
2023/07/07 14:27:32;;;;;;;2.67;1.55;;;;;;;;;;5090302;28;20012;-84
2023/07/07 14:29:59;;;;;;;1.60;1.08;;;;;;;;;;5089619;28;20054;-81
2023/07/07 14:32:36;;;;;;;3.00;2.08;;;;;;;;;;5086343;28;20089;-83
2023/07/07 14:35:19;;;;;;;2.38;1.25;;;;;;;;;;5086278;28;20024;-82
2023/07/07 14:37:53;;;;;;;1.95;1.20;;;;;;;;;;5080499;28;20028;-84
2023/07/07 14:40:27;;;;;;;2.33;1.65;;;;;;;;;;5086098;28;20032;-83
2023/07/07 14:42:53;;;;;;;4.75;1.70;;;;;;;;;;5067769;28;20032;-81
2023/07/07 14:45:41;;;;;;;3.08;1.63;;;;;;;;;;5085832;28;20122;-83
2023/07/07 14:48:17;;;;;;;1.35;0.93;;;;;;;;;;5088232;28;20070;-82
2023/07/07 14:50:43;;;;;;;2.47;1.60;;;;;;;;;;5083533;28;20020;-83
2023/07/07 14:53:15;;;;;;;2.30;1.90;;;;;;;;;;5085275;28;20122;-85
2023/07/07 14:55:48;;;;;;;1.55;1.27;;;;;;;;;;5084920;28;20081;-84
2023/07/07 14:58:21;;;;;;;2.20;1.45;;;;;;;;;;5071226;28;20035;-84
2023/07/07 15:00:46;;;;;;;2.70;2.08;;;;;;;;;;5088604;28;20123;-82
2023/07/07 15:03:37;;;;;;;2.08;1.52;;;;;;;;;;5084700;28;20591;-81
2023/07/07 15:06:07;;;;;;;1.48;1.38;;;;;;;;;;5081421;28;20073;-81
2023/07/07 15:08:35;;;;;;;2.88;2.08;;;;;;;;;;5091700;28;20020;-82
2023/07/07 15:11:11;;;;;;;3.05;1.95;;;;;;;;;;5086164;28;20115;-83